createdAt,value
2023-03-17T00:00:15.603Z,157.13
2023-03-17T00:01:15.692Z,158.90
2023-03-17T00:02:15.746Z,156.86
2023-03-17T00:03:15.793Z,158.01
2023-03-17T00:04:15.788Z,158.23
2023-03-17T00:05:15.853Z,158.14
2023-03-17T00:06:15.890Z,157.23
2023-03-17T00:07:15.933Z,157.87
2023-03-17T00:08:15.961Z,157.65
2023-03-17T00:09:15.991Z,156.84
2023-03-17T00:10:16.008Z,156.91
2023-03-17T00:11:16.087Z,157.25
2023-03-17T00:12:16.109Z,156.97
2023-03-17T00:13:16.169Z,157.15
2023-03-17T00:14:16.264Z,156.46
2023-03-17T00:15:16.303Z,155.83
2023-03-17T00:16:16.361Z,155.90
2023-03-17T00:17:16.339Z,156.08
2023-03-17T00:18:16.408Z,155.14
2023-03-17T00:19:16.446Z,156.15
2023-03-17T00:20:16.529Z,156.94
2023-03-17T00:21:16.537Z,156.80
2023-03-17T00:22:16.633Z,157.04
2023-03-17T00:23:16.659Z,155.79
2023-03-17T00:24:16.658Z,155.03
2023-03-17T00:25:16.715Z,155.60
2023-03-17T00:26:16.762Z,157.09
2023-03-17T00:27:16.756Z,155.88
2023-03-17T00:28:16.772Z,154.78
2023-03-17T00:29:16.785Z,155.08
2023-03-17T00:30:16.790Z,153.82
2023-03-17T00:31:17.096Z,156.25
2023-03-17T00:32:16.942Z,156.22
2023-03-17T00:33:16.952Z,155.10
2023-03-17T00:34:17.004Z,155.89
2023-03-17T00:35:17.030Z,156.15
2023-03-17T00:36:17.052Z,155.96
2023-03-17T00:37:17.079Z,155.30
2023-03-17T00:38:17.107Z,154.47
2023-03-17T00:39:17.084Z,153.55
2023-03-17T00:40:17.129Z,154.73
2023-03-17T00:41:17.135Z,153.89
2023-03-17T00:42:17.193Z,153.25
2023-03-17T00:43:17.254Z,154.54
2023-03-17T00:44:17.276Z,155.17
2023-03-17T00:45:17.362Z,154.77
2023-03-17T00:46:17.401Z,154.91
2023-03-17T00:47:17.422Z,153.85
2023-03-17T00:48:17.389Z,153.93
2023-03-17T00:49:18.464Z,153.41
2023-03-17T00:50:17.456Z,154.26
2023-03-17T00:51:17.425Z,152.58
2023-03-17T01:06:18.480Z,152.93
2023-03-17T01:11:18.556Z,150.37
2023-03-17T01:24:18.471Z,150.21
2023-03-17T01:25:18.497Z,151.05
2023-03-17T01:26:18.452Z,149.53
2023-03-17T01:27:18.460Z,150.99
2023-03-17T01:28:18.588Z,150.75
2023-03-17T01:29:18.561Z,148.70
2023-03-17T01:30:18.565Z,150.78
2023-03-17T01:31:18.664Z,150.50
2023-03-17T01:32:18.613Z,150.09
2023-03-17T01:33:18.630Z,150.54
2023-03-17T01:34:18.703Z,150.84
2023-03-17T01:35:18.767Z,149.53
2023-03-17T01:36:18.829Z,149.96
2023-03-17T01:37:18.889Z,148.05
2023-03-17T01:38:19.001Z,149.76
2023-03-17T01:39:18.972Z,150.50
2023-03-17T01:40:19.000Z,148.82
2023-03-17T01:41:19.030Z,149.71
2023-03-17T01:42:19.088Z,149.11
2023-03-17T01:43:19.134Z,148.18
2023-03-17T01:44:19.192Z,148.12
2023-03-17T01:45:19.254Z,148.75
2023-03-17T01:46:19.288Z,147.97
2023-03-17T01:47:19.306Z,149.03
2023-03-17T01:48:19.348Z,148.21
2023-03-17T01:49:19.473Z,147.53
2023-03-17T01:50:19.503Z,147.89
2023-03-17T01:51:19.563Z,147.93
2023-03-17T01:52:19.592Z,146.59
2023-03-17T01:53:19.662Z,147.44
2023-03-17T01:54:19.726Z,148.03
2023-03-17T01:55:19.782Z,147.75
2023-03-17T01:56:19.849Z,145.87
2023-03-17T01:57:19.889Z,145.90
2023-03-17T01:58:19.948Z,144.82
2023-03-17T01:59:20.016Z,146.25
2023-03-17T02:00:20.070Z,146.33
2023-03-17T02:01:20.105Z,145.76
2023-03-17T02:02:20.168Z,145.37
2023-03-17T02:03:20.253Z,145.42
2023-03-17T02:04:20.401Z,146.14
2023-03-17T02:05:20.362Z,146.21
2023-03-17T02:06:20.412Z,147.26
2023-03-17T02:07:20.496Z,146.12
2023-03-17T02:08:20.546Z,146.48
2023-03-17T02:09:20.586Z,146.58
2023-03-17T02:10:20.649Z,145.43
2023-03-17T02:11:20.716Z,143.51
2023-03-17T02:12:20.757Z,144.82
2023-03-17T02:13:20.836Z,143.66
2023-03-17T02:14:20.869Z,143.90
2023-03-17T02:15:20.937Z,143.89
2023-03-17T02:16:20.973Z,143.21
2023-03-17T02:17:20.996Z,144.83
2023-03-17T02:18:21.059Z,143.88
2023-03-17T02:19:21.087Z,144.45
2023-03-17T02:20:21.114Z,141.13
2023-03-17T02:21:21.134Z,143.01
2023-03-17T02:22:21.146Z,141.96
2023-03-17T02:23:21.195Z,142.93
2023-03-17T02:24:21.250Z,143.07
2023-03-17T02:25:21.268Z,142.54
2023-03-17T02:26:21.294Z,142.12
2023-03-17T02:27:21.335Z,141.91
2023-03-17T02:28:21.366Z,140.80
2023-03-17T02:29:21.388Z,142.52
2023-03-17T02:30:21.434Z,141.43
2023-03-17T02:31:21.493Z,141.29
2023-03-17T02:32:21.526Z,141.88
2023-03-17T02:33:21.555Z,141.74
2023-03-17T02:34:21.547Z,141.43
2023-03-17T02:35:21.566Z,141.21
2023-03-17T02:36:21.638Z,141.62
2023-03-17T02:37:21.620Z,141.89
2023-03-17T02:38:21.668Z,141.64
2023-03-17T02:39:21.688Z,142.31
2023-03-17T02:40:21.707Z,141.86
2023-03-17T02:41:21.728Z,142.34
2023-03-17T02:42:21.772Z,140.51
2023-03-17T02:43:21.747Z,141.08
2023-03-17T02:44:21.801Z,140.05
2023-03-17T02:45:21.796Z,140.29
2023-03-17T02:46:21.926Z,139.92
2023-03-17T02:47:21.885Z,142.25
2023-03-17T02:48:21.899Z,140.78
2023-03-17T02:49:21.907Z,140.14
2023-03-17T02:50:21.912Z,140.40
2023-03-17T02:51:21.976Z,139.91
2023-03-17T02:52:21.906Z,140.17
2023-03-17T02:53:21.971Z,140.91
2023-03-17T02:54:21.995Z,141.61
2023-03-17T02:55:22.003Z,140.66
2023-03-17T02:56:21.993Z,139.73
2023-03-17T02:57:22.004Z,140.14
2023-03-17T02:58:22.012Z,140.43
2023-03-17T02:59:22.010Z,140.46
2023-03-17T03:00:22.051Z,140.84
2023-03-17T03:01:22.030Z,139.20
2023-03-17T03:02:22.066Z,139.14
2023-03-17T03:03:22.032Z,138.77
2023-03-17T03:04:22.044Z,140.37
2023-03-17T03:05:22.073Z,140.48
2023-03-17T03:06:22.063Z,138.90
2023-03-17T03:07:22.085Z,139.36
2023-03-17T03:08:22.093Z,138.48
2023-03-17T03:09:22.079Z,138.82
2023-03-17T03:10:22.083Z,140.74
2023-03-17T03:11:22.094Z,139.67
2023-03-17T03:12:22.123Z,139.12
2023-03-17T03:13:22.106Z,141.75
2023-03-17T03:14:22.112Z,138.91
2023-03-17T03:15:22.130Z,139.03
2023-03-17T03:16:22.168Z,140.06
2023-03-17T03:17:22.157Z,137.88
2023-03-17T03:18:22.138Z,138.42
2023-03-17T03:19:22.168Z,139.77
2023-03-17T03:20:22.191Z,139.83
2023-03-17T03:21:22.182Z,138.15
2023-03-17T03:22:22.171Z,137.54
2023-03-17T03:23:22.170Z,139.27
2023-03-17T03:24:22.166Z,138.98
2023-03-17T03:25:22.188Z,138.72
2023-03-17T03:26:22.187Z,138.90
2023-03-17T03:27:22.168Z,137.72
2023-03-17T03:28:22.171Z,138.48
2023-03-17T03:29:22.187Z,138.23
2023-03-17T03:30:22.193Z,139.70
2023-03-17T03:31:22.193Z,136.75
2023-03-17T03:32:22.188Z,137.75
2023-03-17T03:33:22.184Z,136.82
2023-03-17T03:34:22.188Z,138.95
2023-03-17T03:35:22.181Z,138.46
2023-03-17T03:36:22.184Z,138.40
2023-03-17T03:37:22.228Z,137.99
2023-03-17T03:38:22.191Z,137.25
2023-03-17T03:39:22.205Z,137.79
2023-03-17T03:40:22.168Z,135.65
2023-03-17T03:41:22.193Z,138.30
2023-03-17T03:42:22.208Z,137.39
2023-03-17T03:43:23.872Z,137.83
2023-03-17T03:44:22.205Z,137.34
2023-03-17T03:45:23.096Z,136.38
2023-03-17T03:46:22.223Z,136.47
2023-03-17T03:47:22.203Z,137.97
2023-03-17T03:48:22.215Z,137.83
2023-03-17T03:49:22.173Z,137.68
2023-03-17T03:50:22.208Z,137.39
2023-03-17T03:51:22.244Z,136.11
2023-03-17T03:52:22.189Z,137.62
2023-03-17T03:53:22.202Z,137.26
2023-03-17T03:54:22.190Z,137.60
2023-03-17T03:55:22.212Z,136.13
2023-03-17T03:56:22.243Z,136.44
2023-03-17T03:57:22.221Z,137.45
2023-03-17T03:58:22.199Z,137.53
2023-03-17T03:59:22.280Z,135.70
2023-03-17T04:00:22.311Z,136.65
2023-03-17T04:01:22.281Z,135.57
2023-03-17T04:02:22.342Z,134.48
2023-03-17T04:03:22.261Z,135.20
2023-03-17T04:04:22.319Z,135.70
2023-03-17T04:05:22.306Z,133.83
2023-03-17T04:06:22.355Z,133.99
2023-03-17T04:07:22.327Z,134.08
2023-03-17T04:08:22.337Z,136.03
2023-03-17T04:09:22.342Z,135.71
2023-03-17T04:10:22.394Z,136.97
2023-03-17T04:11:22.340Z,134.00
2023-03-17T04:12:22.374Z,134.81
2023-03-17T04:13:22.377Z,134.91
2023-03-17T04:14:22.383Z,134.78
2023-03-17T04:15:22.348Z,133.31
2023-03-17T04:16:22.467Z,134.79
2023-03-17T04:17:22.349Z,134.04
2023-03-17T04:18:22.344Z,132.81
2023-03-17T04:19:22.413Z,133.69
2023-03-17T04:20:22.421Z,135.31
2023-03-17T04:21:22.342Z,135.98
2023-03-17T04:22:22.386Z,133.80
2023-03-17T04:23:22.350Z,134.41
2023-03-17T04:24:22.379Z,134.41
2023-03-17T04:25:22.342Z,134.29
2023-03-17T04:26:22.356Z,131.97
2023-03-17T04:27:22.330Z,134.74
2023-03-17T04:28:22.331Z,132.13
2023-03-17T04:29:22.328Z,133.43
2023-03-17T04:30:22.353Z,133.51
2023-03-17T04:31:22.379Z,133.66
2023-03-17T04:32:22.359Z,132.01
2023-03-17T04:33:22.365Z,132.83
2023-03-17T04:34:22.355Z,134.07
2023-03-17T04:35:22.375Z,133.37
2023-03-17T04:36:22.350Z,134.59
2023-03-17T04:37:22.383Z,133.88
2023-03-17T04:38:22.342Z,134.21
2023-03-17T04:39:22.395Z,133.63
2023-03-17T04:40:22.348Z,132.02
2023-03-17T04:41:22.388Z,136.34
2023-03-17T04:42:22.364Z,133.04
2023-03-17T04:43:22.377Z,132.39
2023-03-17T04:44:22.391Z,133.50
2023-03-17T04:45:22.337Z,132.54
2023-03-17T04:46:22.380Z,131.85
2023-03-17T04:47:22.356Z,132.49
2023-03-17T04:48:22.407Z,133.28
2023-03-17T04:49:22.418Z,132.20
2023-03-17T04:50:22.426Z,130.98
2023-03-17T04:51:22.425Z,132.59
2023-03-17T04:52:22.428Z,133.22
2023-03-17T04:53:22.440Z,131.69
2023-03-17T04:54:22.461Z,130.22
2023-03-17T04:55:22.508Z,130.26
2023-03-17T04:56:22.501Z,131.32
2023-03-17T04:57:22.521Z,131.90
2023-03-17T04:58:30.546Z,131.89
2023-03-17T04:59:23.540Z,131.99
2023-03-17T05:00:22.507Z,131.94
2023-03-17T05:01:22.528Z,132.17
2023-03-17T05:02:22.539Z,132.45
2023-03-17T05:03:27.193Z,131.78
2023-03-17T05:04:31.165Z,132.00
2023-03-17T05:05:23.456Z,132.11
2023-03-17T05:06:22.471Z,132.65
2023-03-17T05:07:22.457Z,132.57
2023-03-17T05:08:22.480Z,132.25
2023-03-17T05:09:22.457Z,132.88
2023-03-17T05:10:22.437Z,133.30
2023-03-17T05:11:22.435Z,130.84
2023-03-17T05:12:22.480Z,131.09
2023-03-17T05:13:22.417Z,131.85
2023-03-17T05:14:22.398Z,131.99
2023-03-17T05:15:22.415Z,131.48
2023-03-17T05:16:22.421Z,131.85
2023-03-17T05:17:22.397Z,131.05
2023-03-17T05:18:22.408Z,130.36
2023-03-17T05:19:22.382Z,129.78
2023-03-17T05:20:22.379Z,131.37
2023-03-17T05:21:22.414Z,129.47
2023-03-17T05:22:22.362Z,130.09
2023-03-17T05:23:22.379Z,131.70
2023-03-17T05:24:22.359Z,130.78
2023-03-17T05:25:22.342Z,127.87
2023-03-17T05:26:22.336Z,129.80
2023-03-17T05:27:22.330Z,128.77
2023-03-17T05:28:22.343Z,130.09
2023-03-17T05:29:22.316Z,129.07
2023-03-17T05:30:22.327Z,128.80
2023-03-17T05:31:22.408Z,125.36
2023-03-17T05:32:22.311Z,129.10
2023-03-17T05:33:22.274Z,130.04
2023-03-17T05:34:22.298Z,128.07
2023-03-17T05:35:22.299Z,127.63
2023-03-17T05:36:22.263Z,128.45
2023-03-17T05:37:22.267Z,129.59
2023-03-17T05:38:22.276Z,127.40
2023-03-17T05:39:22.288Z,129.22
2023-03-17T05:40:23.849Z,128.83
2023-03-17T05:41:22.271Z,126.15
2023-03-17T05:42:22.263Z,127.04
2023-03-17T05:43:22.216Z,128.12
2023-03-17T05:44:22.246Z,126.67
2023-03-17T05:45:22.220Z,128.36
2023-03-17T05:46:22.223Z,126.64
2023-03-17T05:47:22.186Z,125.95
2023-03-17T05:48:22.214Z,127.48
2023-03-17T05:49:22.216Z,128.69
2023-03-17T05:50:22.169Z,125.16
2023-03-17T05:51:22.212Z,127.74
2023-03-17T05:52:22.174Z,127.27
2023-03-17T05:53:22.172Z,127.91
2023-03-17T05:54:22.180Z,126.01
2023-03-17T05:55:22.141Z,125.07
2023-03-17T05:56:22.140Z,126.13
2023-03-17T05:57:22.160Z,125.41
2023-03-17T05:58:22.162Z,126.24
2023-03-17T05:59:22.147Z,126.59
2023-03-17T06:00:29.580Z,122.61
2023-03-17T06:01:22.104Z,123.01
2023-03-17T06:02:22.162Z,123.32
2023-03-17T06:03:22.128Z,124.53
2023-03-17T06:04:22.088Z,124.62
2023-03-17T06:05:22.092Z,127.41
2023-03-17T06:06:22.085Z,124.98
2023-03-17T06:07:22.092Z,126.01
2023-03-17T06:08:22.070Z,124.23
2023-03-17T06:09:22.095Z,125.66
2023-03-17T06:10:22.075Z,125.71
2023-03-17T06:11:22.054Z,127.28
2023-03-17T06:12:22.021Z,125.26
2023-03-17T06:13:22.034Z,125.40
2023-03-17T06:14:22.041Z,124.94
2023-03-17T06:15:22.019Z,124.86
2023-03-17T06:16:22.065Z,124.14
2023-03-17T06:17:22.002Z,123.39
2023-03-17T06:18:21.996Z,122.90
2023-03-17T06:19:22.016Z,124.68
2023-03-17T06:20:21.985Z,122.89
2023-03-17T06:21:22.041Z,123.55
2023-03-17T06:22:22.031Z,122.60
2023-03-17T06:23:21.999Z,122.54
2023-03-17T06:24:21.953Z,124.26
2023-03-17T06:25:21.968Z,124.09
2023-03-17T06:26:21.993Z,123.57
2023-03-17T06:27:21.992Z,122.75
2023-03-17T06:28:22.679Z,124.73
2023-03-17T06:29:22.065Z,120.82
2023-03-17T06:30:22.081Z,123.50
2023-03-17T06:31:22.209Z,123.47
2023-03-17T06:32:22.155Z,123.08
2023-03-17T06:33:22.194Z,122.52
2023-03-17T06:34:22.193Z,125.47
2023-03-17T06:35:22.275Z,127.85
2023-03-17T06:36:22.327Z,131.07
2023-03-17T06:37:22.739Z,131.19
2023-03-17T06:38:22.378Z,206.44
2023-03-17T06:39:22.431Z,318.01
2023-03-17T06:40:22.487Z,203.79
2023-03-17T06:41:22.553Z,198.23
2023-03-17T06:42:22.687Z,189.12
2023-03-17T06:43:22.555Z,208.36
2023-03-17T06:44:22.622Z,194.13
2023-03-17T06:45:30.019Z,190.39
2023-03-17T06:46:22.645Z,190.70
2023-03-17T06:47:25.803Z,190.76
2023-03-17T06:48:22.622Z,190.43
2023-03-17T06:49:22.623Z,187.39
2023-03-17T06:50:22.581Z,191.85
2023-03-17T06:51:22.665Z,196.38
2023-03-17T06:52:22.558Z,197.25
2023-03-17T06:53:22.588Z,199.39
2023-03-17T06:54:22.583Z,209.95
2023-03-17T06:55:22.585Z,209.62
2023-03-17T06:56:29.869Z,208.21
2023-03-17T06:57:23.529Z,208.76
2023-03-17T06:58:22.541Z,209.83
2023-03-17T06:59:23.051Z,214.93
2023-03-17T07:00:22.547Z,219.10
2023-03-17T07:01:22.540Z,225.42
2023-03-17T07:02:22.776Z,243.57
2023-03-17T07:03:22.511Z,238.39
2023-03-17T07:04:22.618Z,238.69
2023-03-17T07:05:22.473Z,241.11
2023-03-17T07:06:22.562Z,241.27
2023-03-17T07:07:22.608Z,246.30
2023-03-17T07:08:22.651Z,248.83
2023-03-17T07:09:22.616Z,249.37
2023-03-17T07:10:22.704Z,250.00
2023-03-17T07:11:22.727Z,250.00
2023-03-17T07:12:22.728Z,243.92
2023-03-17T07:13:22.805Z,248.85
2023-03-17T07:14:22.811Z,252.70
2023-03-17T07:15:22.788Z,242.37
2023-03-17T07:16:22.839Z,243.64
2023-03-17T07:17:22.845Z,255.23
2023-03-17T07:18:22.870Z,245.36
2023-03-17T07:19:22.865Z,232.82
2023-03-17T07:20:22.940Z,239.30
2023-03-17T07:21:22.889Z,239.06
2023-03-17T07:22:22.933Z,232.37
2023-03-17T07:23:23.176Z,239.06
2023-03-17T07:24:22.988Z,239.72
2023-03-17T07:25:22.917Z,243.70
2023-03-17T07:26:22.918Z,243.96
2023-03-17T07:27:23.257Z,246.62
2023-03-17T07:28:22.952Z,248.15
2023-03-17T07:29:22.984Z,249.27
2023-03-17T07:30:22.940Z,250.58
2023-03-17T07:31:23.054Z,248.58
2023-03-17T07:32:22.951Z,247.09
2023-03-17T07:33:23.041Z,243.96
2023-03-17T07:34:23.118Z,246.22
2023-03-17T07:35:23.198Z,248.23
2023-03-17T07:36:23.211Z,247.30
2023-03-17T07:37:23.274Z,242.84
2023-03-17T07:38:23.284Z,241.33
2023-03-17T07:39:23.310Z,240.35
2023-03-17T07:40:23.341Z,239.50
2023-03-17T07:41:23.326Z,240.90
2023-03-17T07:42:23.453Z,243.39
2023-03-17T07:43:23.409Z,243.92
2023-03-17T07:44:23.428Z,249.03
2023-03-17T07:45:23.464Z,229.25
2023-03-17T07:46:23.545Z,209.34
2023-03-17T07:47:23.489Z,201.81
2023-03-17T07:48:23.495Z,189.84
2023-03-17T07:49:40.049Z,177.50
2023-03-17T07:50:24.536Z,167.70
2023-03-17T07:51:23.518Z,161.01
2023-03-17T07:52:23.572Z,160.81
2023-03-17T07:53:23.523Z,163.12
2023-03-17T07:54:23.500Z,162.87
2023-03-17T07:55:23.500Z,164.73
2023-03-17T07:56:23.551Z,166.10
2023-03-17T07:57:23.657Z,169.44
2023-03-17T07:58:23.505Z,167.70
2023-03-17T07:59:23.448Z,168.01
2023-03-17T08:00:23.463Z,162.08
2023-03-17T08:01:23.463Z,165.37
2023-03-17T08:02:23.529Z,157.87
2023-03-17T08:03:23.470Z,164.52
2023-03-17T08:04:23.441Z,157.44
2023-03-17T08:05:23.442Z,148.52
2023-03-17T08:06:23.464Z,150.22
2023-03-17T08:07:23.422Z,147.88
2023-03-17T08:08:23.503Z,147.86
2023-03-17T08:09:24.289Z,145.98
2023-03-17T08:10:23.478Z,146.76
2023-03-17T08:11:23.554Z,142.24
2023-03-17T08:12:23.494Z,144.50
2023-03-17T08:13:23.456Z,149.97
2023-03-17T08:14:23.423Z,152.83
2023-03-17T08:15:23.491Z,152.82
2023-03-17T08:16:23.610Z,152.56
2023-03-17T08:17:23.677Z,154.31
2023-03-17T08:18:23.739Z,155.41
2023-03-17T08:19:23.919Z,155.51
2023-03-17T08:20:23.877Z,157.33
2023-03-17T08:21:23.862Z,158.50
2023-03-17T08:22:23.941Z,158.92
2023-03-17T08:23:24.257Z,158.56
2023-03-17T08:24:24.046Z,157.51
2023-03-17T08:25:24.063Z,157.63
2023-03-17T08:26:24.135Z,154.37
2023-03-17T08:27:24.229Z,155.40
2023-03-17T08:28:24.227Z,159.59
2023-03-17T08:29:24.337Z,157.90
2023-03-17T08:30:24.361Z,160.34
2023-03-17T08:31:24.480Z,158.51
2023-03-17T08:32:24.451Z,152.17
2023-03-17T08:33:24.503Z,157.02
2023-03-17T08:34:24.522Z,156.10
2023-03-17T08:35:24.575Z,143.98
2023-03-17T08:36:24.630Z,140.36
2023-03-17T08:37:24.666Z,142.33
2023-03-17T08:38:24.741Z,137.09
2023-03-17T08:39:24.808Z,144.81
2023-03-17T08:40:24.857Z,141.15
2023-03-17T08:41:24.945Z,147.39
2023-03-17T08:42:24.971Z,138.17
2023-03-17T08:43:25.044Z,149.51
2023-03-17T08:44:25.044Z,156.94
2023-03-17T08:45:25.102Z,160.47
2023-03-17T08:46:25.163Z,163.40
2023-03-17T08:47:25.177Z,155.73
2023-03-17T08:48:25.296Z,145.83
2023-03-17T08:49:25.231Z,147.07
2023-03-17T08:50:25.335Z,148.60
2023-03-17T08:51:25.272Z,145.82
2023-03-17T08:52:25.338Z,145.82
2023-03-17T08:53:25.416Z,143.98
2023-03-17T08:54:25.471Z,122.85
2023-03-17T08:55:25.478Z,102.90
2023-03-17T08:56:25.484Z,104.33
2023-03-17T08:57:25.497Z,94.75
2023-03-17T08:58:25.512Z,95.30
2023-03-17T08:59:25.571Z,87.81
2023-03-17T09:00:25.537Z,78.53
2023-03-17T09:01:25.651Z,63.04
2023-03-17T09:02:25.742Z,55.48
2023-03-17T09:03:25.710Z,59.81
2023-03-17T09:04:25.772Z,50.87
2023-03-17T09:05:25.818Z,55.72
2023-03-17T09:06:25.893Z,45.97
2023-03-17T09:07:25.936Z,41.02
2023-03-17T09:08:25.998Z,39.41
2023-03-17T09:09:26.070Z,47.08
2023-03-17T09:10:26.147Z,46.51
2023-03-17T09:11:26.178Z,38.79
2023-03-17T09:12:26.263Z,35.56
2023-03-17T09:13:26.286Z,37.31
2023-03-17T09:14:26.344Z,33.86
2023-03-17T09:15:26.354Z,27.24
2023-03-17T09:16:26.367Z,25.03
2023-03-17T09:17:26.425Z,34.29
2023-03-17T09:18:26.760Z,36.01
2023-03-17T09:19:26.540Z,31.39
2023-03-17T09:20:26.521Z,28.47
2023-03-17T09:21:26.572Z,29.01
2023-03-17T09:22:26.652Z,30.76
2023-03-17T09:23:26.735Z,40.74
2023-03-17T09:24:26.677Z,40.78
2023-03-17T09:25:26.690Z,39.06
2023-03-17T09:26:26.777Z,29.26
2023-03-17T09:27:26.843Z,32.29
2023-03-17T09:28:26.891Z,31.01
2023-03-17T09:29:26.903Z,26.77
2023-03-17T09:30:27.020Z,25.33
2023-03-17T09:31:27.064Z,32.01
2023-03-17T09:32:27.112Z,27.67
2023-03-17T09:33:27.323Z,26.63
2023-03-17T09:34:27.171Z,21.78
2023-03-17T09:35:27.253Z,30.61
2023-03-17T09:36:27.297Z,32.08
2023-03-17T09:37:27.329Z,35.05
2023-03-17T09:38:27.955Z,28.12
2023-03-17T09:39:27.526Z,26.53
2023-03-17T09:40:28.534Z,24.67
2023-03-17T09:41:27.638Z,25.47
2023-03-17T09:42:27.547Z,26.43
2023-03-17T09:43:27.620Z,27.20
2023-03-17T09:44:27.563Z,31.30
2023-03-17T09:45:27.562Z,31.31
2023-03-17T09:46:27.618Z,27.18
2023-03-17T09:47:27.568Z,25.81
2023-03-17T09:48:27.632Z,26.86
2023-03-17T09:49:27.656Z,29.22
2023-03-17T09:50:27.589Z,27.83
2023-03-17T09:51:27.589Z,38.62
2023-03-17T09:52:27.609Z,31.66
2023-03-17T09:53:27.636Z,28.96
2023-03-17T09:54:27.804Z,31.28
2023-03-17T09:55:27.731Z,29.93
2023-03-17T09:56:27.777Z,28.69
2023-03-17T09:57:27.865Z,28.14
2023-03-17T09:58:27.895Z,28.01
2023-03-17T09:59:27.970Z,30.58
2023-03-17T10:00:28.043Z,35.34
2023-03-17T10:01:28.107Z,38.81
2023-03-17T10:02:28.157Z,36.82
2023-03-17T10:03:28.202Z,36.28
2023-03-17T10:04:29.192Z,42.40
2023-03-17T10:05:28.456Z,44.67
2023-03-17T10:06:28.369Z,44.29
2023-03-17T10:07:28.439Z,47.22
2023-03-17T10:08:31.631Z,50.84
2023-03-17T10:09:28.568Z,50.10
2023-03-17T10:10:28.916Z,53.80
2023-03-17T10:11:28.460Z,54.14
2023-03-17T10:12:28.419Z,49.71
2023-03-17T10:13:28.439Z,49.64
2023-03-17T10:14:28.408Z,49.22
2023-03-17T10:15:28.410Z,42.27
2023-03-17T10:16:28.449Z,47.80
2023-03-17T10:17:28.403Z,45.75
2023-03-17T10:18:28.425Z,49.60
2023-03-17T10:19:28.415Z,53.33
2023-03-17T10:20:28.373Z,48.39
2023-03-17T10:21:28.366Z,49.52
2023-03-17T10:22:28.339Z,44.23
2023-03-17T10:23:28.350Z,41.58
2023-03-17T10:24:28.362Z,45.58
2023-03-17T10:25:28.354Z,48.13
2023-03-17T10:26:28.363Z,48.67
2023-03-17T10:27:28.326Z,49.08
2023-03-17T10:28:28.337Z,50.57
2023-03-17T10:29:28.298Z,53.56
2023-03-17T10:30:28.302Z,61.04
2023-03-17T10:31:28.440Z,62.33
2023-03-17T10:32:28.320Z,63.58
2023-03-17T10:33:28.295Z,64.02
2023-03-17T10:34:28.269Z,66.63
2023-03-17T10:35:28.316Z,63.74
2023-03-17T10:36:28.264Z,70.66
2023-03-17T10:37:28.236Z,61.71
2023-03-17T10:38:28.262Z,58.35
2023-03-17T10:39:29.300Z,64.31
2023-03-17T10:40:28.422Z,67.38
2023-03-17T10:41:28.213Z,68.86
2023-03-17T10:42:28.283Z,73.46
2023-03-17T10:43:28.288Z,73.62
2023-03-17T10:44:28.328Z,77.52
2023-03-17T10:45:28.268Z,78.36
2023-03-17T10:46:28.260Z,85.13
2023-03-17T10:47:28.306Z,85.47
2023-03-17T10:48:28.303Z,92.13
2023-03-17T10:49:28.836Z,99.03
2023-03-17T10:50:28.489Z,98.53
2023-03-17T10:51:28.501Z,94.89
2023-03-17T10:52:28.505Z,101.03
2023-03-17T10:53:28.673Z,102.98
2023-03-17T10:54:28.816Z,109.20
2023-03-17T10:55:28.590Z,111.77
2023-03-17T10:56:28.647Z,113.41
2023-03-17T10:57:28.693Z,119.01
2023-03-17T10:58:28.756Z,124.58
2023-03-17T10:59:28.822Z,112.39
2023-03-17T11:00:29.120Z,120.02
2023-03-17T11:01:28.918Z,121.78
2023-03-17T11:02:28.990Z,120.76
2023-03-17T11:03:29.121Z,109.38
2023-03-17T11:04:29.111Z,103.43
2023-03-17T11:05:29.179Z,91.40
2023-03-17T11:06:29.163Z,109.19
2023-03-17T11:07:29.247Z,106.15
2023-03-17T11:08:29.294Z,115.66
2023-03-17T11:09:29.387Z,128.59
2023-03-17T11:10:29.627Z,134.64
2023-03-17T11:11:29.402Z,139.15
2023-03-17T11:12:29.470Z,141.44
2023-03-17T11:13:29.476Z,142.42
2023-03-17T11:14:29.846Z,149.11
2023-03-17T11:15:29.836Z,152.22
2023-03-17T11:16:29.616Z,156.43
2023-03-17T11:17:29.564Z,161.57
2023-03-17T11:18:31.358Z,166.48
2023-03-17T11:19:29.591Z,167.87
2023-03-17T11:20:29.899Z,168.69
2023-03-17T11:21:29.626Z,167.96
2023-03-17T11:22:29.657Z,166.81
2023-03-17T11:23:29.658Z,167.47
2023-03-17T11:24:30.859Z,166.47
2023-03-17T11:25:29.702Z,167.39
2023-03-17T11:26:29.740Z,168.07
2023-03-17T11:27:29.712Z,167.05
2023-03-17T11:28:29.713Z,166.90
2023-03-17T11:29:29.747Z,166.18
2023-03-17T11:30:30.095Z,166.19
2023-03-17T11:31:29.848Z,166.62
2023-03-17T11:32:29.884Z,166.61
2023-03-17T11:33:29.812Z,166.07
2023-03-17T11:34:29.827Z,165.46
2023-03-17T11:35:30.390Z,165.09
2023-03-17T11:36:29.876Z,164.23
2023-03-17T11:37:29.907Z,164.61
2023-03-17T11:38:29.912Z,166.14
2023-03-17T11:39:29.977Z,165.69
2023-03-17T11:40:30.568Z,164.19
2023-03-17T11:41:29.985Z,165.11
2023-03-17T11:42:29.967Z,163.96
2023-03-17T11:43:29.995Z,163.74
2023-03-17T11:44:30.032Z,163.17
2023-03-17T11:45:30.031Z,163.37
2023-03-17T11:46:30.094Z,162.64
2023-03-17T11:47:30.091Z,163.85
2023-03-17T11:48:30.066Z,162.70
2023-03-17T11:49:30.124Z,162.38
2023-03-17T11:50:30.602Z,163.87
2023-03-17T11:51:30.193Z,161.61
2023-03-17T11:52:30.151Z,162.47
2023-03-17T11:53:30.208Z,162.02
2023-03-17T11:54:30.213Z,162.36
2023-03-17T11:55:30.209Z,161.34
2023-03-17T11:56:30.219Z,159.51
2023-03-17T11:57:30.295Z,157.82
2023-03-17T11:58:30.240Z,156.63
2023-03-17T11:59:30.303Z,156.14
2023-03-17T12:00:31.111Z,155.54
2023-03-17T12:01:30.363Z,155.36
2023-03-17T12:02:30.437Z,153.99
2023-03-17T12:03:30.465Z,152.92
2023-03-17T12:04:30.596Z,149.58
2023-03-17T12:05:30.555Z,148.16
2023-03-17T12:06:30.557Z,147.49
2023-03-17T12:07:30.624Z,144.15
2023-03-17T12:08:30.663Z,143.33
2023-03-17T12:09:30.720Z,142.67
2023-03-17T12:10:30.849Z,142.65
2023-03-17T12:11:30.744Z,143.12
2023-03-17T12:12:30.808Z,142.78
2023-03-17T12:13:30.810Z,143.52
2023-03-17T12:14:30.858Z,143.18
2023-03-17T12:15:31.439Z,144.42
2023-03-17T12:16:30.877Z,145.02
2023-03-17T12:17:31.459Z,143.72
2023-03-17T12:18:30.950Z,144.20
2023-03-17T12:19:30.949Z,144.98
2023-03-17T12:20:31.556Z,145.02
2023-03-17T12:21:30.966Z,144.81
2023-03-17T12:22:30.965Z,144.55
2023-03-17T12:23:30.978Z,145.58
2023-03-17T12:24:31.003Z,147.11
2023-03-17T12:25:31.047Z,146.84
2023-03-17T12:26:31.043Z,147.81
2023-03-17T12:27:31.026Z,150.32
2023-03-17T12:28:31.041Z,148.78
2023-03-17T12:29:31.120Z,150.97
2023-03-17T12:30:31.546Z,149.62
2023-03-17T12:31:31.170Z,150.94
2023-03-17T12:32:31.098Z,151.80
2023-03-17T12:33:31.140Z,152.61
2023-03-17T12:34:31.114Z,152.57
2023-03-17T12:35:31.582Z,152.88
2023-03-17T12:36:31.192Z,154.58
2023-03-17T12:37:31.182Z,153.47
2023-03-17T12:38:31.183Z,154.94
2023-03-17T12:39:31.187Z,155.57
2023-03-17T12:40:31.514Z,156.28
2023-03-17T12:41:31.242Z,155.99
2023-03-17T12:42:31.256Z,156.12
2023-03-17T12:43:31.309Z,157.84
2023-03-17T12:44:31.273Z,156.87
2023-03-17T12:45:31.534Z,154.97
2023-03-17T12:46:31.355Z,156.90
2023-03-17T12:47:31.362Z,157.19
2023-03-17T12:48:31.391Z,157.31
2023-03-17T12:49:31.487Z,157.11
2023-03-17T12:50:31.513Z,156.76
2023-03-17T12:51:31.481Z,156.10
2023-03-17T12:52:31.550Z,155.02
2023-03-17T12:53:31.596Z,156.73
2023-03-17T12:54:31.546Z,155.78
2023-03-17T12:55:31.901Z,156.96
2023-03-17T12:56:31.669Z,156.30
2023-03-17T12:57:31.673Z,155.92
2023-03-17T12:58:31.717Z,156.48
2023-03-17T12:59:31.739Z,155.82
2023-03-17T13:00:31.786Z,155.72
2023-03-17T13:01:31.848Z,155.34
2023-03-17T13:02:31.861Z,156.40